Aviation Digital Data Service (ADDS)

Output produced by METARs form (1228 UTC 15 November 2018)
found at http://www.aviationweather.gov/metar/data/
 
EHKD 151225Z AUTO 15006KT 120V180 9999 NCD 11/08 Q1023 BLU 16007KT CAVOK
TAF EHKD 150932Z 1510/1522 16006KT CAVOK
       
EHDL 151225Z AUTO 14006KT 070V190 9999 NCD 12/07 Q1024 BLU
TAF EHDL 150939Z 1510/1522 13005KT 7000 NSC
       
EHGG 151225Z AUTO 14006KT 090V190 9999 NSC 10/06 Q1025 NOSIG
TAF EHGG 151052Z 1512/1618 13006KT 8000 NSC 
     BECMG 1517/1519 6000 
     BECMG 1519/1522 4000 BR 
     TEMPO 1521/1610 0800 BCFG 
     PROB40 1602/1608 0200 FG VV001 
     BECMG 1609/1612 7000 NSW
       
EHEH 151225Z AUTO 14005KT 090V190 9999 NCD 12/07 Q1024 BLU 13006KT CAVOK
TAF EHEH 151049Z 1512/1618 12006KT CAVOK 
     BECMG 1522/1601 4000 BR 
     TEMPO 1600/1609 2000 BR 
     PROB30 1603/1608 VRB02KT 1200 BCFG SCT001 
     BECMG 1608/1611 09005KT 9999 NSW
       
EHGR 151225Z AUTO 13007KT 9999 NCD 13/07 Q1024 BLU 13007KT CAVOK
TAF EHGR 150936Z 1510/1522 13005KT CAVOK 
     BECMG 1520/1522 12003KT 4500 BR
       
EHLW 151225Z AUTO 14005KT 100V160 5000 BR NCD 08/06 Q1024 WHT 15006KT 5000 NSC BECMG CAVOK RMK R23
TAF EHLW 150942Z 1510/1522 16006KT 1200 BR OVC002 
     BECMG 1510/1512 3000 SCT004 
     BECMG 1512/1514 CAVOK
       
EHBK 151225Z AUTO 08005KT 050V110 9999 NCD 12/06 Q1024 NOSIG
TAF EHBK 151052Z 1512/1618 11005KT CAVOK 
     BECMG 1518/1521 6000 
     BECMG 1521/1524 4000 BR 
     PROB30 
     TEMPO 1600/1608 0800 BCFG 
     BECMG 1609/1612 CAVOK
       
EHRD 151225Z AUTO 12005KT 090V160 9999 NCD 13/08 Q1023 NOSIG
TAF EHRD 151058Z 1512/1618 14006KT CAVOK 
     BECMG 1518/1521 7000 
     BECMG 1521/1524 4000 BR MIFG 
     BECMG 1600/1603 1200 BCFG 
     PROB40 1602/1610 0300 FG VV000 
     BECMG 1609/1612 4000 BR BKN003 
     BECMG 1612/1615 7000 NSW NSC
       
EHAM 151225Z 14007KT 110V180 CAVOK 11/08 Q1024 NOSIG
TAF EHAM 151058Z 1512/1618 14006KT CAVOK 
     BECMG 1518/1521 7000 
     BECMG 1521/1524 4000 BR MIFG 
     BECMG 1600/1603 1200 BCFG 
     PROB40 1602/1610 0300 FG VV000 
     BECMG 1609/1612 4000 BR BKN003 
     BECMG 1612/1615 7000 NSW NSC
       
EHVK 151225Z AUTO 11006KT 080V140 9999 NCD 12/08 Q1024 BLU 13006KT CAVOK
TAF EHVK 150937Z 1510/1522 14004KT 8000 NSC 
     BECMG 1520/1522 4500 BR
       
EHWO 151225Z AUTO 10005KT 070V140 9999 NCD 13/08 Q1023 BLU 10006KT CAVOK
TAF EHWO 150933Z 1510/1522 12003KT CAVOK 
     BECMG 1520/1522 4500 BR